sensor_id;sensor_type;location;lat;lon;timestamp;temperature;humidity
25918;DHT22;13899;51.174;4.456;2024-02-04T00:02:23;10.80;99.90
25918;DHT22;13899;51.174;4.456;2024-02-04T00:04:51;10.80;99.90
25918;DHT22;13899;51.174;4.456;2024-02-04T00:07:16;10.80;99.90
25918;DHT22;13899;51.174;4.456;2024-02-04T00:09:42;10.80;99.90
25918;DHT22;13899;51.174;4.456;2024-02-04T00:12:09;10.80;99.90
25918;DHT22;13899;51.174;4.456;2024-02-04T00:14:35;10.80;99.90
25918;DHT22;13899;51.174;4.456;2024-02-04T00:17:00;10.80;99.90
25918;DHT22;13899;51.174;4.456;2024-02-04T00:19:26;10.80;99.90
25918;DHT22;13899;51.174;4.456;2024-02-04T00:21:52;10.90;99.90
25918;DHT22;13899;51.174;4.456;2024-02-04T00:24:18;10.80;99.90
25918;DHT22;13899;51.174;4.456;2024-02-04T00:26:45;10.90;99.90
25918;DHT22;13899;51.174;4.456;2024-02-04T00:29:11;10.90;99.90
25918;DHT22;13899;51.174;4.456;2024-02-04T00:31:37;10.80;99.90
25918;DHT22;13899;51.174;4.456;2024-02-04T00:34:02;10.90;99.90
25918;DHT22;13899;51.174;4.456;2024-02-04T00:36:29;10.90;99.90
25918;DHT22;13899;51.174;4.456;2024-02-04T00:38:54;10.90;99.90
25918;DHT22;13899;51.174;4.456;2024-02-04T00:41:20;10.90;99.90
25918;DHT22;13899;51.174;4.456;2024-02-04T00:43:46;10.80;99.90
25918;DHT22;13899;51.174;4.456;2024-02-04T00:46:11;10.80;99.90
25918;DHT22;13899;51.174;4.456;2024-02-04T00:48:37;10.90;99.90
25918;DHT22;13899;51.174;4.456;2024-02-04T00:51:03;11.00;99.90
25918;DHT22;13899;51.174;4.456;2024-02-04T00:53:29;11.00;99.90
25918;DHT22;13899;51.174;4.456;2024-02-04T00:56:01;10.90;99.90
25918;DHT22;13899;51.174;4.456;2024-02-04T00:58:27;11.00;99.90
25918;DHT22;13899;51.174;4.456;2024-02-04T01:00:52;11.00;99.90
25918;DHT22;13899;51.174;4.456;2024-02-04T01:03:18;11.00;99.90
25918;DHT22;13899;51.174;4.456;2024-02-04T01:05:44;11.00;99.90
25918;DHT22;13899;51.174;4.456;2024-02-04T01:08:09;11.00;99.90
25918;DHT22;13899;51.174;4.456;2024-02-04T01:10:35;11.10;99.90
25918;DHT22;13899;51.174;4.456;2024-02-04T01:13:01;11.00;99.90
25918;DHT22;13899;51.174;4.456;2024-02-04T01:15:27;11.00;99.90
25918;DHT22;13899;51.174;4.456;2024-02-04T01:17:52;11.10;99.90
25918;DHT22;13899;51.174;4.456;2024-02-04T01:20:18;11.00;99.90
25918;DHT22;13899;51.174;4.456;2024-02-04T01:22:44;11.00;99.90
25918;DHT22;13899;51.174;4.456;2024-02-04T01:25:10;11.00;99.90
25918;DHT22;13899;51.174;4.456;2024-02-04T01:27:35;11.10;99.90
25918;DHT22;13899;51.174;4.456;2024-02-04T01:30:01;11.00;99.90
25918;DHT22;13899;51.174;4.456;2024-02-04T01:32:27;11.00;99.90
25918;DHT22;13899;51.174;4.456;2024-02-04T01:34:52;11.00;99.90
25918;DHT22;13899;51.174;4.456;2024-02-04T01:37:18;11.10;99.90
25918;DHT22;13899;51.174;4.456;2024-02-04T01:39:44;11.10;99.90
25918;DHT22;13899;51.174;4.456;2024-02-04T01:42:09;11.10;99.90
25918;DHT22;13899;51.174;4.456;2024-02-04T01:44:35;11.10;99.90
25918;DHT22;13899;51.174;4.456;2024-02-04T01:47:01;11.00;99.90
25918;DHT22;13899;51.174;4.456;2024-02-04T01:49:27;11.10;99.90
25918;DHT22;13899;51.174;4.456;2024-02-04T01:51:53;11.20;99.90
25918;DHT22;13899;51.174;4.456;2024-02-04T01:54:20;11.10;99.90
25918;DHT22;13899;51.174;4.456;2024-02-04T01:56:49;11.00;99.90
25918;DHT22;13899;51.174;4.456;2024-02-04T01:59:16;11.20;99.90
25918;DHT22;13899;51.174;4.456;2024-02-04T02:01:43;11.20;99.90
25918;DHT22;13899;51.174;4.456;2024-02-04T02:04:09;11.20;99.90
25918;DHT22;13899;51.174;4.456;2024-02-04T02:06:35;11.30;99.90
25918;DHT22;13899;51.174;4.456;2024-02-04T02:09:07;11.30;99.90
25918;DHT22;13899;51.174;4.456;2024-02-04T02:14:33;11.20;99.90
25918;DHT22;13899;51.174;4.456;2024-02-04T02:17:06;11.20;99.90
25918;DHT22;13899;51.174;4.456;2024-02-04T02:19:54;11.20;99.90
25918;DHT22;13899;51.174;4.456;2024-02-04T02:22:28;11.10;99.90
25918;DHT22;13899;51.174;4.456;2024-02-04T02:24:56;11.30;99.90
25918;DHT22;13899;51.174;4.456;2024-02-04T02:27:24;11.30;99.90
25918;DHT22;13899;51.174;4.456;2024-02-04T02:29:50;11.20;99.90
25918;DHT22;13899;51.174;4.456;2024-02-04T02:32:15;11.30;99.90
25918;DHT22;13899;51.174;4.456;2024-02-04T02:34:41;11.20;99.90
25918;DHT22;13899;51.174;4.456;2024-02-04T02:37:36;11.20;99.90
25918;DHT22;13899;51.174;4.456;2024-02-04T02:40:08;11.20;99.90
25918;DHT22;13899;51.174;4.456;2024-02-04T02:42:38;11.10;99.90
25918;DHT22;13899;51.174;4.456;2024-02-04T02:45:08;11.20;99.90
25918;DHT22;13899;51.174;4.456;2024-02-04T02:47:35;11.30;99.90
25918;DHT22;13899;51.174;4.456;2024-02-04T02:50:01;11.20;99.90
25918;DHT22;13899;51.174;4.456;2024-02-04T02:52:27;11.20;99.90
25918;DHT22;13899;51.174;4.456;2024-02-04T02:54:52;11.30;99.90
25918;DHT22;13899;51.174;4.456;2024-02-04T02:57:19;11.20;99.90
25918;DHT22;13899;51.174;4.456;2024-02-04T02:59:45;11.10;99.90
25918;DHT22;13899;51.174;4.456;2024-02-04T03:02:11;11.10;99.90
25918;DHT22;13899;51.174;4.456;2024-02-04T03:04:39;11.20;99.90
25918;DHT22;13899;51.174;4.456;2024-02-04T03:07:05;11.30;99.90
25918;DHT22;13899;51.174;4.456;2024-02-04T03:09:33;11.20;99.90
25918;DHT22;13899;51.174;4.456;2024-02-04T03:11:58;11.20;99.90
25918;DHT22;13899;51.174;4.456;2024-02-04T03:14:24;11.20;99.90
25918;DHT22;13899;51.174;4.456;2024-02-04T03:16:50;11.20;99.90
25918;DHT22;13899;51.174;4.456;2024-02-04T03:19:15;11.10;99.90
25918;DHT22;13899;51.174;4.456;2024-02-04T03:21:41;11.20;99.90
25918;DHT22;13899;51.174;4.456;2024-02-04T03:24:07;11.20;99.90
25918;DHT22;13899;51.174;4.456;2024-02-04T03:26:32;11.20;99.90
25918;DHT22;13899;51.174;4.456;2024-02-04T03:28:59;11.10;99.90
25918;DHT22;13899;51.174;4.456;2024-02-04T03:31:25;11.10;99.90
25918;DHT22;13899;51.174;4.456;2024-02-04T03:33:51;11.10;99.90
25918;DHT22;13899;51.174;4.456;2024-02-04T03:36:20;11.20;99.90
25918;DHT22;13899;51.174;4.456;2024-02-04T03:38:46;11.20;99.90
25918;DHT22;13899;51.174;4.456;2024-02-04T03:41:12;11.10;99.90
25918;DHT22;13899;51.174;4.456;2024-02-04T03:43:38;11.20;99.90
25918;DHT22;13899;51.174;4.456;2024-02-04T03:46:04;11.20;99.90
25918;DHT22;13899;51.174;4.456;2024-02-04T03:48:29;11.20;99.90
25918;DHT22;13899;51.174;4.456;2024-02-04T03:50:55;11.30;99.90
25918;DHT22;13899;51.174;4.456;2024-02-04T03:53:21;11.30;99.90
25918;DHT22;13899;51.174;4.456;2024-02-04T03:55:49;11.40;99.90
25918;DHT22;13899;51.174;4.456;2024-02-04T03:58:14;11.30;99.90
25918;DHT22;13899;51.174;4.456;2024-02-04T04:00:40;11.20;99.90
25918;DHT22;13899;51.174;4.456;2024-02-04T04:03:06;11.20;99.90
25918;DHT22;13899;51.174;4.456;2024-02-04T04:05:32;11.30;99.90
25918;DHT22;13899;51.174;4.456;2024-02-04T04:07:57;11.30;99.90
25918;DHT22;13899;51.174;4.456;2024-02-04T04:10:23;11.20;99.90
25918;DHT22;13899;51.174;4.456;2024-02-04T04:12:49;11.10;99.90
25918;DHT22;13899;51.174;4.456;2024-02-04T04:15:14;11.10;99.90
25918;DHT22;13899;51.174;4.456;2024-02-04T04:17:40;11.10;99.90
25918;DHT22;13899;51.174;4.456;2024-02-04T04:20:07;11.00;99.90
25918;DHT22;13899;51.174;4.456;2024-02-04T04:22:33;10.90;99.90
25918;DHT22;13899;51.174;4.456;2024-02-04T04:24:58;10.90;99.90
25918;DHT22;13899;51.174;4.456;2024-02-04T04:27:24;11.00;99.90
25918;DHT22;13899;51.174;4.456;2024-02-04T04:29:50;11.00;99.90
25918;DHT22;13899;51.174;4.456;2024-02-04T04:32:15;10.90;99.90
25918;DHT22;13899;51.174;4.456;2024-02-04T04:34:41;10.90;99.90
25918;DHT22;13899;51.174;4.456;2024-02-04T04:37:07;11.00;99.90
25918;DHT22;13899;51.174;4.456;2024-02-04T04:39:33;11.10;99.90
25918;DHT22;13899;51.174;4.456;2024-02-04T04:41:58;11.00;99.90
25918;DHT22;13899;51.174;4.456;2024-02-04T04:44:24;11.20;99.90
25918;DHT22;13899;51.174;4.456;2024-02-04T04:46:50;11.10;99.90
25918;DHT22;13899;51.174;4.456;2024-02-04T04:49:15;11.00;99.90
25918;DHT22;13899;51.174;4.456;2024-02-04T04:51:45;11.00;99.90
25918;DHT22;13899;51.174;4.456;2024-02-04T04:54:12;11.10;99.90
25918;DHT22;13899;51.174;4.456;2024-02-04T04:56:41;10.90;99.90
25918;DHT22;13899;51.174;4.456;2024-02-04T04:59:07;10.90;99.90
25918;DHT22;13899;51.174;4.456;2024-02-04T05:01:33;10.90;99.90
25918;DHT22;13899;51.174;4.456;2024-02-04T05:04:00;10.90;99.90
25918;DHT22;13899;51.174;4.456;2024-02-04T05:06:26;10.90;99.90
25918;DHT22;13899;51.174;4.456;2024-02-04T05:08:51;10.80;99.90
25918;DHT22;13899;51.174;4.456;2024-02-04T05:11:17;10.80;99.90
25918;DHT22;13899;51.174;4.456;2024-02-04T05:13:43;10.90;99.90
25918;DHT22;13899;51.174;4.456;2024-02-04T05:16:09;10.90;99.90
25918;DHT22;13899;51.174;4.456;2024-02-04T05:18:34;10.90;99.90
25918;DHT22;13899;51.174;4.456;2024-02-04T05:21:03;10.90;99.90
25918;DHT22;13899;51.174;4.456;2024-02-04T05:23:29;10.80;99.90
25918;DHT22;13899;51.174;4.456;2024-02-04T05:25:55;10.90;99.90
25918;DHT22;13899;51.174;4.456;2024-02-04T05:28:20;10.90;99.90
25918;DHT22;13899;51.174;4.456;2024-02-04T05:30:46;10.90;99.90
25918;DHT22;13899;51.174;4.456;2024-02-04T05:33:14;11.00;99.90
25918;DHT22;13899;51.174;4.456;2024-02-04T05:35:41;11.00;99.90
25918;DHT22;13899;51.174;4.456;2024-02-04T05:38:09;11.00;99.90
25918;DHT22;13899;51.174;4.456;2024-02-04T05:40:34;11.00;99.90
25918;DHT22;13899;51.174;4.456;2024-02-04T05:43:00;11.00;99.90
25918;DHT22;13899;51.174;4.456;2024-02-04T05:45:31;11.00;99.90
25918;DHT22;13899;51.174;4.456;2024-02-04T05:47:57;11.00;99.90
25918;DHT22;13899;51.174;4.456;2024-02-04T05:50:22;11.00;99.90
25918;DHT22;13899;51.174;4.456;2024-02-04T05:52:48;10.90;99.90
25918;DHT22;13899;51.174;4.456;2024-02-04T05:55:14;11.00;99.90
25918;DHT22;13899;51.174;4.456;2024-02-04T05:57:40;11.10;99.90
25918;DHT22;13899;51.174;4.456;2024-02-04T06:00:07;11.10;99.90
25918;DHT22;13899;51.174;4.456;2024-02-04T06:02:35;11.00;99.90
25918;DHT22;13899;51.174;4.456;2024-02-04T06:05:02;11.00;99.90
25918;DHT22;13899;51.174;4.456;2024-02-04T06:07:27;10.90;99.90
25918;DHT22;13899;51.174;4.456;2024-02-04T06:09:54;11.00;99.90
25918;DHT22;13899;51.174;4.456;2024-02-04T06:12:22;11.00;99.90
25918;DHT22;13899;51.174;4.456;2024-02-04T06:14:47;11.00;99.90
25918;DHT22;13899;51.174;4.456;2024-02-04T06:17:13;10.90;99.90
25918;DHT22;13899;51.174;4.456;2024-02-04T06:19:39;10.90;99.90
25918;DHT22;13899;51.174;4.456;2024-02-04T06:22:07;10.90;99.90
25918;DHT22;13899;51.174;4.456;2024-02-04T06:24:32;10.90;99.90
25918;DHT22;13899;51.174;4.456;2024-02-04T06:26:58;10.90;99.90
25918;DHT22;13899;51.174;4.456;2024-02-04T06:29:24;10.90;99.90
25918;DHT22;13899;51.174;4.456;2024-02-04T06:31:50;10.90;99.90
25918;DHT22;13899;51.174;4.456;2024-02-04T06:34:15;10.90;99.90
25918;DHT22;13899;51.174;4.456;2024-02-04T06:36:44;10.90;99.90
25918;DHT22;13899;51.174;4.456;2024-02-04T06:39:10;10.90;99.90
25918;DHT22;13899;51.174;4.456;2024-02-04T06:41:36;10.80;99.90
25918;DHT22;13899;51.174;4.456;2024-02-04T06:44:05;10.90;99.90
25918;DHT22;13899;51.174;4.456;2024-02-04T06:46:30;10.80;99.90
25918;DHT22;13899;51.174;4.456;2024-02-04T06:48:57;10.80;99.90
25918;DHT22;13899;51.174;4.456;2024-02-04T06:51:22;10.80;99.90
25918;DHT22;13899;51.174;4.456;2024-02-04T06:53:48;10.80;99.90
25918;DHT22;13899;51.174;4.456;2024-02-04T06:56:14;10.80;99.90
25918;DHT22;13899;51.174;4.456;2024-02-04T06:58:41;10.80;99.90
25918;DHT22;13899;51.174;4.456;2024-02-04T07:01:06;10.80;99.90
25918;DHT22;13899;51.174;4.456;2024-02-04T07:03:32;10.70;99.90
25918;DHT22;13899;51.174;4.456;2024-02-04T07:06:01;10.80;99.90
25918;DHT22;13899;51.174;4.456;2024-02-04T07:08:27;10.80;99.90
25918;DHT22;13899;51.174;4.456;2024-02-04T07:10:53;10.80;99.90
25918;DHT22;13899;51.174;4.456;2024-02-04T07:13:19;10.80;99.90
25918;DHT22;13899;51.174;4.456;2024-02-04T07:15:45;10.80;99.90
25918;DHT22;13899;51.174;4.456;2024-02-04T07:18:10;10.80;99.90
25918;DHT22;13899;51.174;4.456;2024-02-04T07:20:37;10.90;99.90
25918;DHT22;13899;51.174;4.456;2024-02-04T07:23:04;10.80;99.90
25918;DHT22;13899;51.174;4.456;2024-02-04T07:25:30;10.80;99.90
25918;DHT22;13899;51.174;4.456;2024-02-04T07:27:55;10.80;99.90
25918;DHT22;13899;51.174;4.456;2024-02-04T07:30:22;10.80;99.90
25918;DHT22;13899;51.174;4.456;2024-02-04T07:32:48;10.80;99.90
25918;DHT22;13899;51.174;4.456;2024-02-04T07:35:14;10.90;99.90
25918;DHT22;13899;51.174;4.456;2024-02-04T07:37:39;10.90;99.90
25918;DHT22;13899;51.174;4.456;2024-02-04T07:40:06;10.90;99.90
25918;DHT22;13899;51.174;4.456;2024-02-04T07:42:32;11.00;99.90
25918;DHT22;13899;51.174;4.456;2024-02-04T07:44:58;11.00;99.90
25918;DHT22;13899;51.174;4.456;2024-02-04T07:47:23;11.00;99.90
25918;DHT22;13899;51.174;4.456;2024-02-04T07:49:50;11.00;99.90
25918;DHT22;13899;51.174;4.456;2024-02-04T07:52:16;11.00;99.90
25918;DHT22;13899;51.174;4.456;2024-02-04T07:54:42;11.00;99.90
25918;DHT22;13899;51.174;4.456;2024-02-04T07:57:09;11.10;99.90
25918;DHT22;13899;51.174;4.456;2024-02-04T07:59:35;11.10;99.90
25918;DHT22;13899;51.174;4.456;2024-02-04T08:02:01;11.10;99.90
25918;DHT22;13899;51.174;4.456;2024-02-04T08:04:28;11.00;99.90
25918;DHT22;13899;51.174;4.456;2024-02-04T08:06:54;11.00;99.90
25918;DHT22;13899;51.174;4.456;2024-02-04T08:09:20;11.10;99.90
25918;DHT22;13899;51.174;4.456;2024-02-04T08:11:46;11.10;99.90
25918;DHT22;13899;51.174;4.456;2024-02-04T08:14:12;11.10;99.90
25918;DHT22;13899;51.174;4.456;2024-02-04T08:16:39;11.10;99.90
25918;DHT22;13899;51.174;4.456;2024-02-04T08:19:06;11.10;99.90
25918;DHT22;13899;51.174;4.456;2024-02-04T08:21:32;11.10;99.90
25918;DHT22;13899;51.174;4.456;2024-02-04T08:23:58;11.20;99.90
25918;DHT22;13899;51.174;4.456;2024-02-04T08:26:25;11.20;99.90
25918;DHT22;13899;51.174;4.456;2024-02-04T08:28:50;11.30;99.90
25918;DHT22;13899;51.174;4.456;2024-02-04T08:31:16;11.30;99.90
25918;DHT22;13899;51.174;4.456;2024-02-04T08:33:42;11.20;99.90
25918;DHT22;13899;51.174;4.456;2024-02-04T08:36:08;11.30;99.90
25918;DHT22;13899;51.174;4.456;2024-02-04T08:38:36;11.40;99.90
25918;DHT22;13899;51.174;4.456;2024-02-04T08:41:03;11.40;99.90
25918;DHT22;13899;51.174;4.456;2024-02-04T08:43:29;11.40;99.90
25918;DHT22;13899;51.174;4.456;2024-02-04T08:45:55;11.40;99.90
25918;DHT22;13899;51.174;4.456;2024-02-04T08:48:21;11.40;99.90
25918;DHT22;13899;51.174;4.456;2024-02-04T08:50:46;11.40;99.90
25918;DHT22;13899;51.174;4.456;2024-02-04T08:53:12;11.40;99.90
25918;DHT22;13899;51.174;4.456;2024-02-04T08:55:38;11.50;99.90
25918;DHT22;13899;51.174;4.456;2024-02-04T08:58:04;11.60;99.90
25918;DHT22;13899;51.174;4.456;2024-02-04T09:00:29;11.50;99.90
25918;DHT22;13899;51.174;4.456;2024-02-04T09:02:55;11.50;99.90
25918;DHT22;13899;51.174;4.456;2024-02-04T09:05:21;11.50;99.90
25918;DHT22;13899;51.174;4.456;2024-02-04T09:07:47;11.50;99.90
25918;DHT22;13899;51.174;4.456;2024-02-04T09:10:13;11.60;99.90
25918;DHT22;13899;51.174;4.456;2024-02-04T09:12:40;11.50;99.90
25918;DHT22;13899;51.174;4.456;2024-02-04T09:15:07;11.50;99.90
25918;DHT22;13899;51.174;4.456;2024-02-04T09:17:33;11.50;99.90
25918;DHT22;13899;51.174;4.456;2024-02-04T09:19:59;11.60;99.90
25918;DHT22;13899;51.174;4.456;2024-02-04T09:22:25;11.60;99.90
25918;DHT22;13899;51.174;4.456;2024-02-04T09:24:51;11.60;99.90
25918;DHT22;13899;51.174;4.456;2024-02-04T09:27:17;11.60;99.90
25918;DHT22;13899;51.174;4.456;2024-02-04T09:29:43;11.60;99.90
25918;DHT22;13899;51.174;4.456;2024-02-04T09:32:08;11.60;99.90
25918;DHT22;13899;51.174;4.456;2024-02-04T09:34:34;11.70;99.90
25918;DHT22;13899;51.174;4.456;2024-02-04T09:37:00;11.70;99.90
25918;DHT22;13899;51.174;4.456;2024-02-04T09:39:27;11.70;99.90
25918;DHT22;13899;51.174;4.456;2024-02-04T09:41:55;11.70;99.90
25918;DHT22;13899;51.174;4.456;2024-02-04T09:44:21;11.70;99.90
25918;DHT22;13899;51.174;4.456;2024-02-04T09:46:53;11.70;99.90
25918;DHT22;13899;51.174;4.456;2024-02-04T09:49:19;11.70;99.90
25918;DHT22;13899;51.174;4.456;2024-02-04T09:51:48;11.70;99.90
25918;DHT22;13899;51.174;4.456;2024-02-04T09:54:15;11.70;99.90
25918;DHT22;13899;51.174;4.456;2024-02-04T09:56:42;11.70;99.90
25918;DHT22;13899;51.174;4.456;2024-02-04T09:59:08;11.70;99.90
25918;DHT22;13899;51.174;4.456;2024-02-04T10:01:35;11.60;99.90
25918;DHT22;13899;51.174;4.456;2024-02-04T10:04:02;11.70;99.90
25918;DHT22;13899;51.174;4.456;2024-02-04T10:06:27;11.70;99.90
25918;DHT22;13899;51.174;4.456;2024-02-04T10:08:55;11.70;99.90
25918;DHT22;13899;51.174;4.456;2024-02-04T10:11:20;11.70;99.90
25918;DHT22;13899;51.174;4.456;2024-02-04T10:13:47;11.80;99.90
25918;DHT22;13899;51.174;4.456;2024-02-04T10:16:14;12.00;99.90
25918;DHT22;13899;51.174;4.456;2024-02-04T10:18:47;11.90;99.90
25918;DHT22;13899;51.174;4.456;2024-02-04T10:21:18;12.00;99.90
25918;DHT22;13899;51.174;4.456;2024-02-04T10:23:45;12.00;99.90
25918;DHT22;13899;51.174;4.456;2024-02-04T10:26:11;12.00;99.90
25918;DHT22;13899;51.174;4.456;2024-02-04T10:28:38;12.10;99.90
25918;DHT22;13899;51.174;4.456;2024-02-04T10:31:09;12.30;99.90
25918;DHT22;13899;51.174;4.456;2024-02-04T10:33:38;12.30;99.90
25918;DHT22;13899;51.174;4.456;2024-02-04T10:36:04;12.20;99.90
25918;DHT22;13899;51.174;4.456;2024-02-04T10:38:34;12.20;99.90
25918;DHT22;13899;51.174;4.456;2024-02-04T10:41:01;12.20;99.90
25918;DHT22;13899;51.174;4.456;2024-02-04T10:43:31;12.30;99.90
25918;DHT22;13899;51.174;4.456;2024-02-04T10:46:01;12.40;99.90
25918;DHT22;13899;51.174;4.456;2024-02-04T10:48:34;12.10;99.90
25918;DHT22;13899;51.174;4.456;2024-02-04T10:51:10;12.40;99.90
25918;DHT22;13899;51.174;4.456;2024-02-04T10:53:38;12.40;99.90
25918;DHT22;13899;51.174;4.456;2024-02-04T10:56:06;12.50;99.90
25918;DHT22;13899;51.174;4.456;2024-02-04T10:58:35;12.50;99.90
25918;DHT22;13899;51.174;4.456;2024-02-04T11:01:01;12.50;99.90
25918;DHT22;13899;51.174;4.456;2024-02-04T11:03:27;12.50;99.90
25918;DHT22;13899;51.174;4.456;2024-02-04T11:05:55;12.50;99.90
25918;DHT22;13899;51.174;4.456;2024-02-04T11:08:21;12.50;99.90
25918;DHT22;13899;51.174;4.456;2024-02-04T11:10:47;12.50;99.90
25918;DHT22;13899;51.174;4.456;2024-02-04T11:13:13;12.50;99.90
25918;DHT22;13899;51.174;4.456;2024-02-04T11:15:41;12.60;99.90
25918;DHT22;13899;51.174;4.456;2024-02-04T11:18:52;12.60;99.90
25918;DHT22;13899;51.174;4.456;2024-02-04T11:27:11;12.90;99.90
25918;DHT22;13899;51.174;4.456;2024-02-04T11:29:37;13.00;99.90
25918;DHT22;13899;51.174;4.456;2024-02-04T11:32:07;13.10;99.90
25918;DHT22;13899;51.174;4.456;2024-02-04T11:34:41;13.00;99.90
25918;DHT22;13899;51.174;4.456;2024-02-04T11:37:19;13.20;99.90
25918;DHT22;13899;51.174;4.456;2024-02-04T11:39:52;13.10;99.90
25918;DHT22;13899;51.174;4.456;2024-02-04T11:42:18;12.90;99.90
25918;DHT22;13899;51.174;4.456;2024-02-04T11:44:50;12.90;99.90
25918;DHT22;13899;51.174;4.456;2024-02-04T11:47:26;13.00;99.90
25918;DHT22;13899;51.174;4.456;2024-02-04T11:49:57;12.90;99.90
25918;DHT22;13899;51.174;4.456;2024-02-04T11:52:23;12.90;99.90
25918;DHT22;13899;51.174;4.456;2024-02-04T11:54:49;12.80;99.90
25918;DHT22;13899;51.174;4.456;2024-02-04T11:57:15;12.90;99.90
25918;DHT22;13899;51.174;4.456;2024-02-04T11:59:42;13.00;99.90
25918;DHT22;13899;51.174;4.456;2024-02-04T12:02:10;13.50;99.90
25918;DHT22;13899;51.174;4.456;2024-02-04T12:04:37;13.60;99.90
25918;DHT22;13899;51.174;4.456;2024-02-04T12:07:05;13.50;99.90
25918;DHT22;13899;51.174;4.456;2024-02-04T12:09:31;13.60;99.90
25918;DHT22;13899;51.174;4.456;2024-02-04T12:11:57;13.30;99.90
25918;DHT22;13899;51.174;4.456;2024-02-04T12:14:24;13.00;99.90
25918;DHT22;13899;51.174;4.456;2024-02-04T12:16:50;13.00;99.90
25918;DHT22;13899;51.174;4.456;2024-02-04T12:19:16;13.00;99.90
25918;DHT22;13899;51.174;4.456;2024-02-04T12:21:41;12.90;99.90
25918;DHT22;13899;51.174;4.456;2024-02-04T12:24:07;13.00;99.90
25918;DHT22;13899;51.174;4.456;2024-02-04T12:26:34;13.00;99.90
25918;DHT22;13899;51.174;4.456;2024-02-04T12:29:00;13.00;99.90
25918;DHT22;13899;51.174;4.456;2024-02-04T12:31:27;13.10;99.90
25918;DHT22;13899;51.174;4.456;2024-02-04T12:33:59;13.30;99.90
25918;DHT22;13899;51.174;4.456;2024-02-04T12:36:32;13.10;99.90
25918;DHT22;13899;51.174;4.456;2024-02-04T12:39:02;13.00;99.90
25918;DHT22;13899;51.174;4.456;2024-02-04T12:41:30;13.10;99.90
25918;DHT22;13899;51.174;4.456;2024-02-04T12:43:57;13.10;99.90
25918;DHT22;13899;51.174;4.456;2024-02-04T12:46:28;12.90;99.90
25918;DHT22;13899;51.174;4.456;2024-02-04T12:48:58;13.00;99.90
25918;DHT22;13899;51.174;4.456;2024-02-04T12:51:31;13.20;99.90
25918;DHT22;13899;51.174;4.456;2024-02-04T12:54:11;12.90;99.90
25918;DHT22;13899;51.174;4.456;2024-02-04T12:59:26;13.00;99.90
25918;DHT22;13899;51.174;4.456;2024-02-04T13:01:59;12.80;99.90
25918;DHT22;13899;51.174;4.456;2024-02-04T13:04:36;12.90;99.90
25918;DHT22;13899;51.174;4.456;2024-02-04T13:07:07;12.90;99.90
25918;DHT22;13899;51.174;4.456;2024-02-04T13:09:33;13.00;99.90
25918;DHT22;13899;51.174;4.456;2024-02-04T13:12:05;13.00;99.90
25918;DHT22;13899;51.174;4.456;2024-02-04T13:14:33;13.00;99.90
25918;DHT22;13899;51.174;4.456;2024-02-04T13:16:58;13.10;99.90
25918;DHT22;13899;51.174;4.456;2024-02-04T13:19:24;13.00;99.90
25918;DHT22;13899;51.174;4.456;2024-02-04T13:21:50;12.80;99.90
25918;DHT22;13899;51.174;4.456;2024-02-04T13:24:15;12.80;99.90
25918;DHT22;13899;51.174;4.456;2024-02-04T13:26:41;12.70;99.90
25918;DHT22;13899;51.174;4.456;2024-02-04T13:29:07;12.70;99.90
25918;DHT22;13899;51.174;4.456;2024-02-04T13:31:33;12.70;99.90
25918;DHT22;13899;51.174;4.456;2024-02-04T13:33:58;12.70;99.90
25918;DHT22;13899;51.174;4.456;2024-02-04T13:36:24;12.70;99.90
25918;DHT22;13899;51.174;4.456;2024-02-04T13:38:50;12.80;99.90
25918;DHT22;13899;51.174;4.456;2024-02-04T13:41:16;12.60;99.90
25918;DHT22;13899;51.174;4.456;2024-02-04T13:43:41;12.60;99.90
25918;DHT22;13899;51.174;4.456;2024-02-04T13:46:09;12.70;99.90
25918;DHT22;13899;51.174;4.456;2024-02-04T13:48:35;12.60;99.90
25918;DHT22;13899;51.174;4.456;2024-02-04T13:51:01;12.60;99.90
25918;DHT22;13899;51.174;4.456;2024-02-04T13:53:26;12.70;99.90
25918;DHT22;13899;51.174;4.456;2024-02-04T13:55:52;12.80;99.90
25918;DHT22;13899;51.174;4.456;2024-02-04T13:58:18;12.70;99.90
25918;DHT22;13899;51.174;4.456;2024-02-04T14:00:45;12.90;99.90
25918;DHT22;13899;51.174;4.456;2024-02-04T14:03:13;13.00;99.90
25918;DHT22;13899;51.174;4.456;2024-02-04T14:05:38;12.80;99.90
25918;DHT22;13899;51.174;4.456;2024-02-04T14:08:06;12.90;99.90
25918;DHT22;13899;51.174;4.456;2024-02-04T14:10:32;12.90;99.90
25918;DHT22;13899;51.174;4.456;2024-02-04T14:12:57;13.10;99.90
25918;DHT22;13899;51.174;4.456;2024-02-04T14:15:23;13.20;99.90
25918;DHT22;13899;51.174;4.456;2024-02-04T14:17:49;13.10;99.90
25918;DHT22;13899;51.174;4.456;2024-02-04T14:20:14;12.90;99.90
25918;DHT22;13899;51.174;4.456;2024-02-04T14:22:40;13.20;99.90
25918;DHT22;13899;51.174;4.456;2024-02-04T14:25:06;13.10;99.90
25918;DHT22;13899;51.174;4.456;2024-02-04T14:27:32;12.90;99.90
25918;DHT22;13899;51.174;4.456;2024-02-04T14:29:58;12.80;99.90
25918;DHT22;13899;51.174;4.456;2024-02-04T14:32:24;13.00;99.90
25918;DHT22;13899;51.174;4.456;2024-02-04T14:34:50;13.20;99.90
25918;DHT22;13899;51.174;4.456;2024-02-04T14:37:16;13.20;99.90
25918;DHT22;13899;51.174;4.456;2024-02-04T14:39:44;13.20;99.90
25918;DHT22;13899;51.174;4.456;2024-02-04T14:42:09;13.00;99.90
25918;DHT22;13899;51.174;4.456;2024-02-04T14:44:35;13.10;99.90
25918;DHT22;13899;51.174;4.456;2024-02-04T14:47:01;12.80;99.90
25918;DHT22;13899;51.174;4.456;2024-02-04T14:49:28;12.90;99.90
25918;DHT22;13899;51.174;4.456;2024-02-04T14:51:54;12.80;99.90
25918;DHT22;13899;51.174;4.456;2024-02-04T14:54:19;12.70;99.90
25918;DHT22;13899;51.174;4.456;2024-02-04T14:56:45;12.60;99.90
25918;DHT22;13899;51.174;4.456;2024-02-04T14:59:13;12.70;99.90
25918;DHT22;13899;51.174;4.456;2024-02-04T15:01:38;12.70;99.90
25918;DHT22;13899;51.174;4.456;2024-02-04T15:04:04;12.70;99.90
25918;DHT22;13899;51.174;4.456;2024-02-04T15:06:30;12.60;99.90
25918;DHT22;13899;51.174;4.456;2024-02-04T15:08:57;12.60;99.90
25918;DHT22;13899;51.174;4.456;2024-02-04T15:11:25;12.60;99.90
25918;DHT22;13899;51.174;4.456;2024-02-04T15:13:51;12.60;99.90
25918;DHT22;13899;51.174;4.456;2024-02-04T15:16:16;12.60;99.90
25918;DHT22;13899;51.174;4.456;2024-02-04T15:18:42;12.60;99.90
25918;DHT22;13899;51.174;4.456;2024-02-04T15:21:08;12.60;99.90
25918;DHT22;13899;51.174;4.456;2024-02-04T15:23:34;12.60;99.90
25918;DHT22;13899;51.174;4.456;2024-02-04T15:26:02;12.70;99.90
25918;DHT22;13899;51.174;4.456;2024-02-04T15:28:28;12.80;99.90
25918;DHT22;13899;51.174;4.456;2024-02-04T15:30:54;12.70;99.90
25918;DHT22;13899;51.174;4.456;2024-02-04T15:33:21;12.60;99.90
25918;DHT22;13899;51.174;4.456;2024-02-04T15:35:48;12.60;99.90
25918;DHT22;13899;51.174;4.456;2024-02-04T15:38:14;12.50;99.90
25918;DHT22;13899;51.174;4.456;2024-02-04T15:40:40;12.50;99.90